Search for airport 
image banner adimage banner ad
image banner ad

SVBE - San Benito

Located in Zulia, Venezuela

ICAO - SVBE, IATA -

Data provided by Airmate  

General information

Coordinates: N10°18'48" W72°3'48"
Elevation is 249 feet MSL.
 
Rated:
View ratings: [VIEW]


View others Airports in Zulia

Operational data

Open for public use
Current time UTC:
Current local time:
Weather at : SVMC - Maracaibo / La Chinita Intl ( 46 km )
METAR: SVMC 062102Z AUTO NIL
TAF: TAF SVMC 061600Z 0612/0712 11002KT 9999 SCT100 TX35/0619Z TN25/0509Z BECMG 0612/0616 14005KT 9000 -DZ BKN100
View NOTAMs / SUP AIP / TFR affecting this airport [VIEW]
Communications frequencies: [VIEW]

Runways:

RWY identifierQFULength (ft)Width (ft)SurfaceLDA (ft)
0200
2000

Airport contact information

Address: Zulia Venezuela

Satellite view of SVBE